createdAt,value
2022-09-09T00:01:31.890Z,79.05
2022-09-09T00:04:04.626Z,80.30
2022-09-09T00:06:37.153Z,81.28
2022-09-09T00:09:13.043Z,80.93
2022-09-09T00:12:23.990Z,77.85
2022-09-09T00:15:00.890Z,76.25
2022-09-09T00:17:40.734Z,78.80
2022-09-09T00:20:15.419Z,78.47
2022-09-09T00:22:48.768Z,80.40
2022-09-09T00:25:30.106Z,81.53
2022-09-09T00:27:57.052Z,79.95
2022-09-09T00:30:28.091Z,85.95
2022-09-09T00:33:01.047Z,82.88
2022-09-09T00:35:33.411Z,77.50
2022-09-09T00:38:11.781Z,83.85
2022-09-09T00:40:46.310Z,79.38
2022-09-09T00:43:31.938Z,80.47
2022-09-09T00:46:25.134Z,84.47
2022-09-09T00:49:10.340Z,74.57
2022-09-09T00:51:51.209Z,80.75
2022-09-09T00:54:36.918Z,82.22
2022-09-09T00:57:13.799Z,81.70
2022-09-09T00:59:51.594Z,84.00
2022-09-09T01:02:32.466Z,86.05
2022-09-09T01:05:28.116Z,80.25
2022-09-09T01:07:58.384Z,77.80
2022-09-09T01:10:54.136Z,76.35
2022-09-09T01:13:36.351Z,75.85
2022-09-09T01:16:06.872Z,78.80
2022-09-09T01:18:37.329Z,81.10
2022-09-09T01:21:23.634Z,79.82
2022-09-09T01:24:08.750Z,84.30
2022-09-09T01:26:38.518Z,82.05
2022-09-09T01:29:09.817Z,79.63
2022-09-09T01:32:00.226Z,80.32
2022-09-09T01:34:34.872Z,81.47
2022-09-09T01:37:13.193Z,79.95
2022-09-09T01:39:42.726Z,78.45
2022-09-09T01:42:12.705Z,84.32
2022-09-09T01:44:39.443Z,78.60
2022-09-09T01:47:06.824Z,77.93
2022-09-09T01:49:33.786Z,79.93
2022-09-09T01:52:00.403Z,82.07
2022-09-09T01:54:30.750Z,80.55
2022-09-09T01:57:18.775Z,84.15
2022-09-09T02:00:07.062Z,80.47
2022-09-09T02:02:57.003Z,81.78
2022-09-09T02:05:46.331Z,81.00
2022-09-09T02:08:20.001Z,82.05
2022-09-09T02:11:12.362Z,84.30
2022-09-09T02:13:39.918Z,85.43
2022-09-09T02:16:22.562Z,81.10
2022-09-09T02:19:14.178Z,81.18
2022-09-09T02:21:44.680Z,82.65
2022-09-09T02:24:14.927Z,80.65
2022-09-09T02:26:43.587Z,82.07
2022-09-09T02:29:15.306Z,79.25
2022-09-09T02:31:45.175Z,84.97
2022-09-09T02:34:13.235Z,82.53
2022-09-09T02:36:43.942Z,84.80
2022-09-09T02:39:11.598Z,78.18
2022-09-09T02:41:41.078Z,81.50
2022-09-09T02:44:17.821Z,84.70
2022-09-09T02:46:44.110Z,82.88
2022-09-09T02:49:18.033Z,82.28
2022-09-09T02:52:06.611Z,83.32
2022-09-09T02:54:37.053Z,87.47
2022-09-09T02:57:07.261Z,82.93
2022-09-09T02:59:34.637Z,85.20
2022-09-09T03:02:01.076Z,88.75
2022-09-09T03:04:27.571Z,85.90
2022-09-09T03:06:54.101Z,88.45
2022-09-09T03:09:20.582Z,84.70
2022-09-09T03:11:47.282Z,85.72
2022-09-09T03:14:13.712Z,94.43
2022-09-09T03:16:40.166Z,79.93
2022-09-09T03:19:07.291Z,83.88
2022-09-09T03:21:33.751Z,82.65
2022-09-09T03:24:00.472Z,81.47
2022-09-09T03:26:26.854Z,80.63
2022-09-09T03:28:54.162Z,87.10
2022-09-09T03:31:20.703Z,86.68
2022-09-09T03:33:47.200Z,85.60
2022-09-09T03:36:13.679Z,92.38
2022-09-09T03:38:40.360Z,80.88
2022-09-09T03:41:06.984Z,84.60
2022-09-09T03:43:33.681Z,83.50
2022-09-09T03:46:00.432Z,86.70
2022-09-09T03:48:28.955Z,85.55
2022-09-09T03:50:56.929Z,86.55
2022-09-09T03:53:25.562Z,86.82
2022-09-09T03:56:00.357Z,81.55
2022-09-09T03:58:28.168Z,82.43
2022-09-09T04:00:57.388Z,91.65
2022-09-09T04:03:28.033Z,82.88
2022-09-09T04:05:56.484Z,79.38
2022-09-09T04:08:26.224Z,84.20
2022-09-09T04:10:53.882Z,82.18
2022-09-09T04:13:20.715Z,89.60
2022-09-09T04:15:54.718Z,87.88
2022-09-09T04:18:21.566Z,84.95
2022-09-09T04:20:49.627Z,87.63
2022-09-09T04:23:16.785Z,87.95
2022-09-09T04:25:48.073Z,82.47
2022-09-09T04:28:15.615Z,83.60
2022-09-09T04:30:42.757Z,77.55
2022-09-09T04:33:10.796Z,80.68
2022-09-09T04:35:38.491Z,80.75
2022-09-09T04:38:06.352Z,76.72
2022-09-09T04:40:32.726Z,78.55
2022-09-09T04:43:00.252Z,81.97
2022-09-09T04:45:27.180Z,82.50
2022-09-09T04:47:54.629Z,83.80
2022-09-09T04:50:21.289Z,83.45
2022-09-09T04:52:47.687Z,88.47
2022-09-09T04:55:14.337Z,82.47
2022-09-09T04:57:41.040Z,72.80
2022-09-09T05:00:08.412Z,75.32
2022-09-09T05:02:39.530Z,74.68
2022-09-09T05:05:07.218Z,74.65
2022-09-09T05:07:33.593Z,79.93
2022-09-09T05:09:59.912Z,74.85
2022-09-09T05:12:26.717Z,79.82
2022-09-09T05:14:53.517Z,79.10
2022-09-09T05:17:20.087Z,79.68
2022-09-09T05:19:46.455Z,72.93
2022-09-09T05:22:12.847Z,70.93
2022-09-09T05:24:39.696Z,66.45
2022-09-09T05:27:06.932Z,67.03
2022-09-09T05:29:34.371Z,66.50
2022-09-09T05:32:01.241Z,63.17
2022-09-09T05:34:28.007Z,67.60
2022-09-09T05:36:54.597Z,64.80
2022-09-09T05:39:20.989Z,68.35
2022-09-09T05:41:47.318Z,69.30
2022-09-09T05:44:14.353Z,70.57
2022-09-09T05:46:40.759Z,74.90
2022-09-09T05:49:07.150Z,71.72
2022-09-09T05:51:33.546Z,67.28
2022-09-09T05:53:59.943Z,66.38
2022-09-09T05:56:28.794Z,62.42
2022-09-09T05:58:56.198Z,68.10
2022-09-09T06:01:24.213Z,60.55
2022-09-09T06:03:52.409Z,60.60
2022-09-09T06:06:25.136Z,61.25
2022-09-09T06:08:53.253Z,59.63
2022-09-09T06:11:23.107Z,64.13
2022-09-09T06:13:54.272Z,59.45
2022-09-09T06:16:24.640Z,57.67
2022-09-09T06:18:51.898Z,52.65
2022-09-09T06:21:23.591Z,55.35
2022-09-09T06:23:50.011Z,50.78
2022-09-09T06:26:21.668Z,52.35
2022-09-09T06:28:50.441Z,48.58
2022-09-09T06:31:18.918Z,52.28
2022-09-09T06:33:45.397Z,55.13
2022-09-09T06:36:17.049Z,53.45
2022-09-09T06:38:43.597Z,54.30
2022-09-09T06:41:11.494Z,51.00
2022-09-09T06:43:38.221Z,45.83
2022-09-09T06:46:06.370Z,44.50
2022-09-09T06:48:33.553Z,46.40
2022-09-09T06:51:08.599Z,45.92
2022-09-09T06:53:36.699Z,45.65
2022-09-09T06:56:18.131Z,44.63
2022-09-09T06:58:45.903Z,46.00
2022-09-09T07:01:14.681Z,45.80
2022-09-09T07:03:43.063Z,46.65
2022-09-09T07:06:21.787Z,45.00
2022-09-09T07:08:57.082Z,41.30
2022-09-09T07:11:27.730Z,43.25
2022-09-09T07:13:54.613Z,56.78
2022-09-09T07:16:24.644Z,50.25
2022-09-09T07:18:52.251Z,50.33
2022-09-09T07:21:19.835Z,52.95
2022-09-09T07:23:46.222Z,47.97
2022-09-09T07:26:20.218Z,49.13
2022-09-09T07:28:47.580Z,50.50
2022-09-09T07:31:19.054Z,47.80
2022-09-09T07:33:46.226Z,46.67
2022-09-09T07:36:24.461Z,47.05
2022-09-09T07:38:59.881Z,42.75
2022-09-09T07:41:36.608Z,41.35
2022-09-09T07:44:12.796Z,49.45
2022-09-09T07:46:40.747Z,46.03
2022-09-09T07:49:07.718Z,41.55
2022-09-09T07:51:36.872Z,37.35
2022-09-09T07:54:08.579Z,41.90
2022-09-09T07:56:35.266Z,40.30
2022-09-09T07:59:02.096Z,42.00
2022-09-09T08:01:40.145Z,38.53
2022-09-09T08:04:09.522Z,35.05
2022-09-09T08:06:40.315Z,32.65
2022-09-09T08:09:08.608Z,38.53
2022-09-09T08:11:39.318Z,30.55
2022-09-09T08:14:08.410Z,29.23
2022-09-09T08:16:37.423Z,35.38
2022-09-09T08:19:04.819Z,30.83
2022-09-09T08:21:34.061Z,34.20
2022-09-09T08:24:02.548Z,29.98
2022-09-09T08:26:31.638Z,26.98
2022-09-09T08:28:59.840Z,25.85
2022-09-09T08:31:29.362Z,22.95
2022-09-09T08:33:57.050Z,24.70
2022-09-09T08:36:26.520Z,20.60
2022-09-09T08:38:56.078Z,18.52
2022-09-09T08:41:37.354Z,19.52
2022-09-09T08:44:12.295Z,16.65
2022-09-09T08:47:03.464Z,24.40
2022-09-09T08:49:54.667Z,18.15
2022-09-09T08:52:28.163Z,19.13
2022-09-09T08:54:58.919Z,24.37
2022-09-09T08:57:29.190Z,17.77
2022-09-09T08:59:57.581Z,17.20
2022-09-09T09:02:50.206Z,18.23
2022-09-09T09:05:31.001Z,16.42
2022-09-09T09:08:18.502Z,16.40
2022-09-09T09:10:51.580Z,19.75
2022-09-09T09:13:44.220Z,24.85
2022-09-09T09:16:24.636Z,15.43
2022-09-09T09:18:52.140Z,15.82
2022-09-09T09:21:39.770Z,18.42
2022-09-09T09:24:19.731Z,20.45
2022-09-09T09:26:48.962Z,19.13
2022-09-09T09:29:20.693Z,20.83
2022-09-09T09:31:53.031Z,18.20
2022-09-09T09:34:19.341Z,18.63
2022-09-09T09:36:53.426Z,19.77
2022-09-09T09:42:20.331Z,24.15
2022-09-09T09:44:49.731Z,23.30
2022-09-09T09:47:22.064Z,21.30
2022-09-09T09:50:00.254Z,21.27
2022-09-09T09:52:29.581Z,18.27
2022-09-09T09:55:01.830Z,16.42
2022-09-09T09:57:32.843Z,16.92
2022-09-09T10:00:14.881Z,16.35
2022-09-09T10:02:44.518Z,20.52
2022-09-09T10:05:26.604Z,22.75
2022-09-09T10:08:13.744Z,26.35
2022-09-09T10:11:07.859Z,19.20
2022-09-09T10:13:46.909Z,13.70
2022-09-09T10:16:34.934Z,14.35
2022-09-09T10:19:05.376Z,12.40
2022-09-09T10:21:59.517Z,12.48
2022-09-09T10:24:53.949Z,13.73
2022-09-09T10:27:26.720Z,12.25
2022-09-09T10:30:03.020Z,12.05
2022-09-09T10:33:07.016Z,16.25
2022-09-09T10:35:40.809Z,13.40
2022-09-09T10:38:27.024Z,12.60
2022-09-09T10:40:57.480Z,11.93
2022-09-09T10:43:42.081Z,11.25
2022-09-09T10:46:30.228Z,12.32
2022-09-09T10:49:04.963Z,11.38
2022-09-09T10:51:34.916Z,10.68
2022-09-09T10:54:41.403Z,9.85
2022-09-09T10:57:35.081Z,12.43
2022-09-09T11:00:15.561Z,10.48
2022-09-09T11:02:43.007Z,13.40
2022-09-09T11:05:34.772Z,12.35
2022-09-09T11:08:06.337Z,9.05
2022-09-09T11:11:03.403Z,11.07
2022-09-09T11:13:52.421Z,11.80
2022-09-09T11:16:21.799Z,11.80
2022-09-09T11:18:48.553Z,11.70
2022-09-09T11:21:27.162Z,10.00
2022-09-09T11:24:02.167Z,9.73
2022-09-09T11:26:45.790Z,10.63
2022-09-09T11:29:38.002Z,12.77
2022-09-09T11:32:45.795Z,11.18
2022-09-09T11:35:33.457Z,11.05
2022-09-09T11:38:06.040Z,10.85
2022-09-09T11:40:33.793Z,11.10
2022-09-09T11:43:06.827Z,13.35
2022-09-09T11:45:36.338Z,10.63
2022-09-09T11:48:04.671Z,13.10
2022-09-09T11:50:37.352Z,16.75
2022-09-09T11:53:23.520Z,21.65
2022-09-09T11:56:09.987Z,21.67
2022-09-09T11:58:42.591Z,20.33
2022-09-09T12:01:30.870Z,25.52
2022-09-09T12:04:12.554Z,31.23
2022-09-09T12:06:47.778Z,34.88
2022-09-09T12:09:49.413Z,40.30
2022-09-09T12:12:15.864Z,35.60
2022-09-09T12:14:42.242Z,43.60
2022-09-09T12:17:17.537Z,44.17
2022-09-09T12:19:43.869Z,48.17
2022-09-09T12:22:31.843Z,52.95
2022-09-09T12:25:10.312Z,50.92
2022-09-09T12:28:05.299Z,55.03
2022-09-09T12:33:17.471Z,53.90
2022-09-09T12:35:49.930Z,71.28
2022-09-09T12:38:26.613Z,70.43
2022-09-09T12:40:58.269Z,70.47
2022-09-09T12:43:26.463Z,64.75
2022-09-09T12:46:09.571Z,75.78
2022-09-09T12:48:39.979Z,75.95
2022-09-09T12:51:17.829Z,73.85
2022-09-09T12:53:47.041Z,77.40
2022-09-09T12:56:22.224Z,76.32
2022-09-09T12:58:52.524Z,73.97
2022-09-09T13:01:30.269Z,71.07
2022-09-09T13:03:57.761Z,68.05
2022-09-09T13:06:28.889Z,66.53
2022-09-09T13:08:59.945Z,48.88
2022-09-09T13:11:40.473Z,48.00
2022-09-09T13:14:07.428Z,44.20
2022-09-09T13:16:41.943Z,50.67
2022-09-09T13:19:14.846Z,41.05
2022-09-09T13:21:41.556Z,38.03
2022-09-09T13:24:30.375Z,45.35
2022-09-09T13:26:59.127Z,53.60
2022-09-09T13:29:25.634Z,59.15
2022-09-09T13:31:56.467Z,50.20
2022-09-09T13:34:31.727Z,42.72
2022-09-09T13:37:03.532Z,40.80
2022-09-09T13:39:30.241Z,37.47
2022-09-09T13:41:56.953Z,35.75
2022-09-09T13:44:34.919Z,37.53
2022-09-09T13:47:08.131Z,29.15
2022-09-09T13:49:36.702Z,29.80
2022-09-09T13:52:17.738Z,30.33
2022-09-09T13:54:47.768Z,30.23
2022-09-09T13:57:22.864Z,37.97
2022-09-09T14:00:04.679Z,41.05
2022-09-09T14:02:32.123Z,47.47
2022-09-09T14:04:58.571Z,56.55
2022-09-09T14:07:26.177Z,60.85
2022-09-09T14:09:53.325Z,61.67
2022-09-09T14:12:19.768Z,59.10
2022-09-09T14:14:46.180Z,67.60
2022-09-09T14:17:12.461Z,69.45
2022-09-09T14:19:38.938Z,64.60
2022-09-09T14:22:05.361Z,73.70
2022-09-09T14:24:31.879Z,93.03
2022-09-09T14:26:58.222Z,96.65
2022-09-09T14:29:25.958Z,88.95
2022-09-09T14:31:52.319Z,73.97
2022-09-09T14:34:19.431Z,75.22
2022-09-09T14:36:46.626Z,71.72
2022-09-09T14:39:13.159Z,78.30
2022-09-09T14:41:39.451Z,72.38
2022-09-09T14:44:05.826Z,79.40
2022-09-09T14:46:34.215Z,71.60
2022-09-09T14:49:00.764Z,72.55
2022-09-09T14:51:29.017Z,76.13
2022-09-09T14:53:58.614Z,72.70
2022-09-09T14:56:28.657Z,69.57
2022-09-09T14:58:58.875Z,73.22
2022-09-09T15:01:28.168Z,78.93
2022-09-09T15:03:58.869Z,77.57
2022-09-09T15:06:27.344Z,73.72
2022-09-09T15:08:54.510Z,77.30
2022-09-09T15:11:22.375Z,78.70
2022-09-09T15:13:53.577Z,79.85
2022-09-09T15:16:20.974Z,73.03
2022-09-09T15:18:50.930Z,61.80
2022-09-09T15:21:22.572Z,51.53
2022-09-09T15:23:49.855Z,58.10
2022-09-09T15:26:16.519Z,65.65
2022-09-09T15:28:45.270Z,60.78
2022-09-09T15:31:23.696Z,63.03
2022-09-09T15:33:54.240Z,54.83
2022-09-09T15:36:23.672Z,52.30
2022-09-09T15:38:50.195Z,44.53
2022-09-09T15:41:18.027Z,43.97
2022-09-09T15:43:50.800Z,38.85
2022-09-09T15:46:20.213Z,40.90
2022-09-09T15:48:49.056Z,38.55
2022-09-09T15:51:41.254Z,40.63
2022-09-09T15:54:04.373Z,42.78
2022-09-09T15:56:31.410Z,46.78
2022-09-09T15:58:58.373Z,42.20
2022-09-09T16:01:25.730Z,46.95
2022-09-09T16:03:52.711Z,42.58
2022-09-09T16:06:22.333Z,41.33
2022-09-09T16:08:52.619Z,58.33
2022-09-09T16:11:30.098Z,60.28
2022-09-09T16:13:56.964Z,64.85
2022-09-09T16:16:25.842Z,56.75
2022-09-09T16:18:55.683Z,64.60
2022-09-09T16:21:34.165Z,68.97
2022-09-09T16:24:03.314Z,72.80
2022-09-09T16:26:32.271Z,71.38
2022-09-09T16:29:02.229Z,70.15
2022-09-09T16:31:30.485Z,70.13
2022-09-09T16:33:56.949Z,74.65
2022-09-09T16:36:25.539Z,68.88
2022-09-09T16:38:58.180Z,69.82
2022-09-09T16:41:26.186Z,78.95
2022-09-09T16:43:57.663Z,78.30
2022-09-09T16:46:25.383Z,84.35
2022-09-09T16:48:52.595Z,79.22
2022-09-09T16:51:30.640Z,81.32
2022-09-09T16:53:59.532Z,82.60
2022-09-09T16:56:28.056Z,80.25
2022-09-09T16:58:57.332Z,79.90
2022-09-09T17:01:30.395Z,74.05
2022-09-09T17:04:01.123Z,71.93
2022-09-09T17:06:29.780Z,71.00
2022-09-09T17:08:57.970Z,69.65
2022-09-09T17:11:24.629Z,66.93
2022-09-09T17:13:52.741Z,60.83
2022-09-09T17:16:22.677Z,62.15
2022-09-09T17:18:50.800Z,60.72
2022-09-09T17:21:20.017Z,59.88
2022-09-09T17:23:47.357Z,59.97
2022-09-09T17:26:17.135Z,57.63
2022-09-09T17:28:46.444Z,57.95
2022-09-09T17:31:15.133Z,56.05
2022-09-09T17:33:45.076Z,49.65
2022-09-09T17:36:15.062Z,57.03
2022-09-09T17:38:43.414Z,47.00
2022-09-09T17:41:37.032Z,45.80
2022-09-09T17:44:04.725Z,50.30
2022-09-09T17:46:35.922Z,51.03
2022-09-09T17:49:05.501Z,53.83
2022-09-09T17:51:33.253Z,49.65
2022-09-09T17:54:01.901Z,53.40
2022-09-09T17:56:31.499Z,43.65
2022-09-09T17:58:59.177Z,45.17
2022-09-09T18:01:29.122Z,45.10
2022-09-09T18:04:01.343Z,43.05
2022-09-09T18:06:31.792Z,45.75
2022-09-09T18:09:02.262Z,49.20
2022-09-09T18:11:31.985Z,44.53
2022-09-09T18:14:00.897Z,42.38
2022-09-09T18:16:30.510Z,42.92
2022-09-09T18:19:03.318Z,44.33
2022-09-09T18:21:32.998Z,43.35
2022-09-09T18:24:00.947Z,46.42
2022-09-09T18:26:28.046Z,47.38
2022-09-09T18:28:59.323Z,47.22
2022-09-09T18:31:27.658Z,49.22
2022-09-09T18:33:56.778Z,46.92
2022-09-09T18:36:26.500Z,42.88
2022-09-09T18:38:53.207Z,42.10
2022-09-09T18:41:22.536Z,41.70
2022-09-09T18:43:50.337Z,41.10
2022-09-09T18:46:18.158Z,41.65
2022-09-09T18:48:45.756Z,42.45
2022-09-09T18:51:14.159Z,43.78
2022-09-09T18:53:43.803Z,41.13
2022-09-09T18:56:13.311Z,44.70
2022-09-09T18:58:40.365Z,44.00
2022-09-09T19:01:12.326Z,47.88
2022-09-09T19:03:38.874Z,54.22
2022-09-09T19:06:09.492Z,50.17
2022-09-09T19:08:37.817Z,49.58
2022-09-09T19:11:06.091Z,52.17
2022-09-09T19:13:33.170Z,57.78
2022-09-09T19:16:07.570Z,58.05
2022-09-09T19:18:34.878Z,64.35
2022-09-09T19:21:13.506Z,57.58
2022-09-09T19:23:41.274Z,50.00
2022-09-09T19:26:08.102Z,53.10
2022-09-09T19:28:35.809Z,45.08
2022-09-09T19:31:06.795Z,50.85
2022-09-09T19:33:34.085Z,56.63
2022-09-09T19:36:02.330Z,64.93
2022-09-09T19:38:30.099Z,63.50
2022-09-09T19:40:56.788Z,61.03
2022-09-09T19:43:24.655Z,65.32
2022-09-09T19:46:02.278Z,68.68
2022-09-09T19:48:33.460Z,72.65
2022-09-09T19:51:04.714Z,74.63
2022-09-09T19:53:34.979Z,70.30
2022-09-09T19:56:03.486Z,80.50
2022-09-09T19:58:34.325Z,83.70
2022-09-09T20:01:11.386Z,84.50
2022-09-09T20:03:39.701Z,83.57
2022-09-09T20:06:08.677Z,77.43
2022-09-09T20:08:36.470Z,79.68
2022-09-09T20:11:04.054Z,78.90
2022-09-09T20:13:32.870Z,80.90
2022-09-09T20:16:03.738Z,83.40
2022-09-09T20:18:32.377Z,81.43
2022-09-09T20:21:00.771Z,81.95
2022-09-09T20:23:31.106Z,77.40
2022-09-09T20:26:02.941Z,80.90
2022-09-09T20:28:29.824Z,83.35
2022-09-09T20:30:56.163Z,77.25
2022-09-09T20:33:22.526Z,76.13
2022-09-09T20:35:48.960Z,80.50
2022-09-09T20:38:15.401Z,78.10
2022-09-09T20:40:42.096Z,75.82
2022-09-09T20:43:12.544Z,78.88
2022-09-09T20:45:39.189Z,72.93
2022-09-09T20:48:07.206Z,75.85
2022-09-09T20:50:36.800Z,78.85
2022-09-09T20:53:03.813Z,74.97
2022-09-09T20:55:34.270Z,73.68
2022-09-09T20:58:01.136Z,75.25
2022-09-09T21:00:29.928Z,69.70
2022-09-09T21:02:56.678Z,74.97
2022-09-09T21:05:24.303Z,68.15
2022-09-09T21:07:52.805Z,63.33
2022-09-09T21:10:20.127Z,68.38
2022-09-09T21:12:46.589Z,67.03
2022-09-09T21:15:12.879Z,66.28
2022-09-09T21:17:40.166Z,63.08
2022-09-09T21:20:07.213Z,66.47
2022-09-09T21:22:33.562Z,58.92
2022-09-09T21:24:59.874Z,59.65
2022-09-09T21:27:26.200Z,61.50
2022-09-09T21:29:52.588Z,59.65
2022-09-09T21:32:18.900Z,62.25
2022-09-09T21:34:45.791Z,54.97
2022-09-09T21:37:12.119Z,61.45
2022-09-09T21:39:38.638Z,59.63
2022-09-09T21:42:05.130Z,60.33
2022-09-09T21:44:31.467Z,59.05
2022-09-09T21:46:57.765Z,55.08
2022-09-09T21:49:24.061Z,56.72
2022-09-09T21:51:50.851Z,55.28
2022-09-09T21:54:18.592Z,58.83
2022-09-09T21:56:45.110Z,53.10
2022-09-09T21:59:11.991Z,54.05
2022-09-09T22:01:40.189Z,54.85
2022-09-09T22:04:06.566Z,56.15
2022-09-09T22:06:32.985Z,56.95
2022-09-09T22:08:59.419Z,57.92
2022-09-09T22:11:25.798Z,58.85
2022-09-09T22:13:53.262Z,62.67
2022-09-09T22:16:22.419Z,63.83
2022-09-09T22:18:54.644Z,63.38
2022-09-09T22:21:22.063Z,63.28
2022-09-09T22:23:57.264Z,61.03
2022-09-09T22:26:25.301Z,61.15
2022-09-09T22:28:53.695Z,61.75
2022-09-09T22:31:22.487Z,58.42
2022-09-09T22:33:49.154Z,54.10
2022-09-09T22:36:15.505Z,51.78
2022-09-09T22:38:42.363Z,51.92
2022-09-09T22:41:08.744Z,45.65
2022-09-09T22:43:35.042Z,48.83
2022-09-09T22:46:02.342Z,48.05
2022-09-09T22:48:32.952Z,47.97
2022-09-09T22:51:04.414Z,44.83
2022-09-09T22:53:34.191Z,46.00
2022-09-09T22:56:02.920Z,50.50
2022-09-09T22:58:31.631Z,52.47
2022-09-09T23:00:59.465Z,44.58
2022-09-09T23:03:27.972Z,47.17
2022-09-09T23:06:01.574Z,49.25
2022-09-09T23:08:36.749Z,52.92
2022-09-09T23:11:11.376Z,49.13
2022-09-09T23:13:41.422Z,46.40
2022-09-09T23:16:12.880Z,53.30
2022-09-09T23:18:43.468Z,48.25
2022-09-09T23:21:11.770Z,49.58
2022-09-09T23:23:40.558Z,47.67
2022-09-09T23:26:09.390Z,50.10
2022-09-09T23:28:37.863Z,47.63
2022-09-09T23:31:09.833Z,48.20
2022-09-09T23:33:36.988Z,48.38
2022-09-09T23:36:08.283Z,49.75
2022-09-09T23:38:36.240Z,49.00
2022-09-09T23:41:03.458Z,48.95
2022-09-09T23:43:29.923Z,46.60
2022-09-09T23:45:56.934Z,47.30
2022-09-09T23:48:28.002Z,47.28
2022-09-09T23:50:54.958Z,46.50
2022-09-09T23:53:22.082Z,48.03
2022-09-09T23:55:48.506Z,48.00
2022-09-09T23:58:15.061Z,48.88
